sensor_id;sensor_type;location;lat;lon;timestamp;temperature;humidity
48936;DHT22;34745;52.276;10.528;2024-02-21T00:01:07;8.30;99.90
48936;DHT22;34745;52.276;10.528;2024-02-21T00:03:34;8.30;99.90
48936;DHT22;34745;52.276;10.528;2024-02-21T00:06:01;8.30;99.90
48936;DHT22;34745;52.276;10.528;2024-02-21T00:08:28;8.40;99.90
48936;DHT22;34745;52.276;10.528;2024-02-21T00:10:55;8.40;99.90
48936;DHT22;34745;52.276;10.528;2024-02-21T00:13:24;8.40;99.90
48936;DHT22;34745;52.276;10.528;2024-02-21T00:15:51;8.30;99.90
48936;DHT22;34745;52.276;10.528;2024-02-21T00:18:18;8.40;99.90
48936;DHT22;34745;52.276;10.528;2024-02-21T00:20:45;8.40;99.90
48936;DHT22;34745;52.276;10.528;2024-02-21T00:23:12;8.40;99.90
48936;DHT22;34745;52.276;10.528;2024-02-21T00:25:39;8.40;99.90
48936;DHT22;34745;52.276;10.528;2024-02-21T00:28:06;8.40;99.90
48936;DHT22;34745;52.276;10.528;2024-02-21T00:30:34;8.40;99.90
48936;DHT22;34745;52.276;10.528;2024-02-21T00:33:01;8.40;99.90
48936;DHT22;34745;52.276;10.528;2024-02-21T00:35:28;8.40;99.90
48936;DHT22;34745;52.276;10.528;2024-02-21T00:37:55;8.40;99.90
48936;DHT22;34745;52.276;10.528;2024-02-21T00:40:23;8.30;99.90
48936;DHT22;34745;52.276;10.528;2024-02-21T00:42:50;8.30;99.90
48936;DHT22;34745;52.276;10.528;2024-02-21T00:45:17;8.30;99.90
48936;DHT22;34745;52.276;10.528;2024-02-21T00:47:45;8.40;99.90
48936;DHT22;34745;52.276;10.528;2024-02-21T00:50:13;8.40;99.90
48936;DHT22;34745;52.276;10.528;2024-02-21T00:52:40;8.40;99.90
48936;DHT22;34745;52.276;10.528;2024-02-21T00:55:08;8.40;99.90
48936;DHT22;34745;52.276;10.528;2024-02-21T00:57:36;8.40;99.90
48936;DHT22;34745;52.276;10.528;2024-02-21T01:00:04;8.40;99.90
48936;DHT22;34745;52.276;10.528;2024-02-21T01:02:31;8.50;99.90
48936;DHT22;34745;52.276;10.528;2024-02-21T01:05:02;8.50;99.90
48936;DHT22;34745;52.276;10.528;2024-02-21T01:07:29;8.50;99.90
48936;DHT22;34745;52.276;10.528;2024-02-21T01:09:56;8.60;99.90
48936;DHT22;34745;52.276;10.528;2024-02-21T01:12:23;8.60;99.90
48936;DHT22;34745;52.276;10.528;2024-02-21T01:14:50;8.60;99.90
48936;DHT22;34745;52.276;10.528;2024-02-21T01:17:17;8.60;99.90
48936;DHT22;34745;52.276;10.528;2024-02-21T01:19:46;8.50;99.90
48936;DHT22;34745;52.276;10.528;2024-02-21T01:22:14;8.60;99.90
48936;DHT22;34745;52.276;10.528;2024-02-21T01:24:43;8.60;99.90
48936;DHT22;34745;52.276;10.528;2024-02-21T01:27:09;8.60;99.90
48936;DHT22;34745;52.276;10.528;2024-02-21T01:29:37;8.60;99.90
48936;DHT22;34745;52.276;10.528;2024-02-21T01:32:04;8.60;99.90
48936;DHT22;34745;52.276;10.528;2024-02-21T01:34:32;8.60;99.90
48936;DHT22;34745;52.276;10.528;2024-02-21T01:36:59;8.60;99.90
48936;DHT22;34745;52.276;10.528;2024-02-21T01:39:27;8.60;99.90
48936;DHT22;34745;52.276;10.528;2024-02-21T01:41:54;8.60;99.90
48936;DHT22;34745;52.276;10.528;2024-02-21T01:44:21;8.60;99.90
48936;DHT22;34745;52.276;10.528;2024-02-21T01:46:48;8.60;99.90
48936;DHT22;34745;52.276;10.528;2024-02-21T01:49:15;8.60;99.90
48936;DHT22;34745;52.276;10.528;2024-02-21T01:51:42;8.60;99.90
48936;DHT22;34745;52.276;10.528;2024-02-21T01:54:10;8.60;99.90
48936;DHT22;34745;52.276;10.528;2024-02-21T01:56:38;8.60;99.90
48936;DHT22;34745;52.276;10.528;2024-02-21T01:59:05;8.60;99.90
48936;DHT22;34745;52.276;10.528;2024-02-21T02:01:33;8.60;99.90
48936;DHT22;34745;52.276;10.528;2024-02-21T02:04:00;8.60;99.90
48936;DHT22;34745;52.276;10.528;2024-02-21T02:06:28;8.60;99.90
48936;DHT22;34745;52.276;10.528;2024-02-21T02:08:55;8.60;99.90
48936;DHT22;34745;52.276;10.528;2024-02-21T02:11:23;8.60;99.90
48936;DHT22;34745;52.276;10.528;2024-02-21T02:13:59;8.60;99.90
48936;DHT22;34745;52.276;10.528;2024-02-21T02:16:26;8.60;99.90
48936;DHT22;34745;52.276;10.528;2024-02-21T02:18:53;8.60;99.90
48936;DHT22;34745;52.276;10.528;2024-02-21T02:21:26;8.60;99.90
48936;DHT22;34745;52.276;10.528;2024-02-21T02:23:57;8.60;99.90
48936;DHT22;34745;52.276;10.528;2024-02-21T02:26:24;8.60;99.90
48936;DHT22;34745;52.276;10.528;2024-02-21T02:28:51;8.60;99.90
48936;DHT22;34745;52.276;10.528;2024-02-21T02:31:18;8.60;99.90
48936;DHT22;34745;52.276;10.528;2024-02-21T02:33:45;8.60;99.90
48936;DHT22;34745;52.276;10.528;2024-02-21T02:36:12;8.70;99.90
48936;DHT22;34745;52.276;10.528;2024-02-21T02:38:39;8.60;99.90
48936;DHT22;34745;52.276;10.528;2024-02-21T02:41:07;8.70;99.90
48936;DHT22;34745;52.276;10.528;2024-02-21T02:43:34;8.60;96.10
48936;DHT22;34745;52.276;10.528;2024-02-21T02:46:01;8.70;85.70
48936;DHT22;34745;52.276;10.528;2024-02-21T02:48:28;8.70;88.60
48936;DHT22;34745;52.276;10.528;2024-02-21T02:50:55;8.70;84.80
48936;DHT22;34745;52.276;10.528;2024-02-21T02:53:22;8.70;80.60
48936;DHT22;34745;52.276;10.528;2024-02-21T02:55:50;8.70;77.10
48936;DHT22;34745;52.276;10.528;2024-02-21T02:58:18;8.70;75.80
48936;DHT22;34745;52.276;10.528;2024-02-21T03:00:45;8.70;65.60
48936;DHT22;34745;52.276;10.528;2024-02-21T03:03:12;8.70;70.60
48936;DHT22;34745;52.276;10.528;2024-02-21T03:05:39;8.70;66.80
48936;DHT22;34745;52.276;10.528;2024-02-21T03:08:06;8.70;62.70
48936;DHT22;34745;52.276;10.528;2024-02-21T03:10:34;8.80;58.30
48936;DHT22;34745;52.276;10.528;2024-02-21T03:13:01;8.80;53.60
48936;DHT22;34745;52.276;10.528;2024-02-21T03:15:29;8.80;54.80
48936;DHT22;34745;52.276;10.528;2024-02-21T03:17:56;8.80;55.50
48936;DHT22;34745;52.276;10.528;2024-02-21T03:20:23;8.80;49.60
48936;DHT22;34745;52.276;10.528;2024-02-21T03:22:50;8.80;54.00
48936;DHT22;34745;52.276;10.528;2024-02-21T03:25:18;8.80;49.80
48936;DHT22;34745;52.276;10.528;2024-02-21T03:27:46;8.80;48.60
48936;DHT22;34745;52.276;10.528;2024-02-21T03:30:14;8.80;43.60
48936;DHT22;34745;52.276;10.528;2024-02-21T03:32:42;8.80;44.00
48936;DHT22;34745;52.276;10.528;2024-02-21T03:35:09;8.80;49.50
48936;DHT22;34745;52.276;10.528;2024-02-21T03:37:36;8.80;46.80
48936;DHT22;34745;52.276;10.528;2024-02-21T03:40:07;8.80;35.90
48936;DHT22;34745;52.276;10.528;2024-02-21T03:42:34;8.80;36.60
48936;DHT22;34745;52.276;10.528;2024-02-21T03:45:01;8.90;33.80
48936;DHT22;34745;52.276;10.528;2024-02-21T03:47:28;8.90;33.60
48936;DHT22;34745;52.276;10.528;2024-02-21T03:49:57;8.90;32.90
48936;DHT22;34745;52.276;10.528;2024-02-21T03:52:25;8.90;34.50
48936;DHT22;34745;52.276;10.528;2024-02-21T03:54:52;8.80;36.40
48936;DHT22;34745;52.276;10.528;2024-02-21T03:57:21;8.80;32.60
48936;DHT22;34745;52.276;10.528;2024-02-21T03:59:51;8.80;33.30
48936;DHT22;34745;52.276;10.528;2024-02-21T04:02:19;8.90;31.70
48936;DHT22;34745;52.276;10.528;2024-02-21T04:04:46;8.90;30.50
48936;DHT22;34745;52.276;10.528;2024-02-21T04:07:15;8.80;31.40
48936;DHT22;34745;52.276;10.528;2024-02-21T04:09:42;8.80;27.80
48936;DHT22;34745;52.276;10.528;2024-02-21T04:12:10;8.80;20.80
48936;DHT22;34745;52.276;10.528;2024-02-21T04:14:37;8.90;29.50
48936;DHT22;34745;52.276;10.528;2024-02-21T04:17:04;8.90;23.50
48936;DHT22;34745;52.276;10.528;2024-02-21T04:19:32;8.80;25.90
48936;DHT22;34745;52.276;10.528;2024-02-21T04:22:00;8.90;25.20
48936;DHT22;34745;52.276;10.528;2024-02-21T04:24:29;8.80;24.60
48936;DHT22;34745;52.276;10.528;2024-02-21T04:26:56;8.90;25.60
48936;DHT22;34745;52.276;10.528;2024-02-21T04:29:22;8.80;19.60
48936;DHT22;34745;52.276;10.528;2024-02-21T04:31:50;8.90;15.90
48936;DHT22;34745;52.276;10.528;2024-02-21T04:34:17;8.90;9.00
48936;DHT22;34745;52.276;10.528;2024-02-21T04:36:44;8.90;8.50
48936;DHT22;34745;52.276;10.528;2024-02-21T04:39:11;9.10;9.50
48936;DHT22;34745;52.276;10.528;2024-02-21T04:41:40;9.00;6.00
48936;DHT22;34745;52.276;10.528;2024-02-21T04:44:07;9.00;4.90
48936;DHT22;34745;52.276;10.528;2024-02-21T04:46:34;9.00;1.00
48936;DHT22;34745;52.276;10.528;2024-02-21T04:49:01;9.00;1.00
48936;DHT22;34745;52.276;10.528;2024-02-21T04:51:28;8.90;1.00
48936;DHT22;34745;52.276;10.528;2024-02-21T04:53:55;9.00;1.00
48936;DHT22;34745;52.276;10.528;2024-02-21T04:56:22;8.90;1.00
48936;DHT22;34745;52.276;10.528;2024-02-21T04:58:50;9.00;1.00
48936;DHT22;34745;52.276;10.528;2024-02-21T05:01:17;8.90;1.00
48936;DHT22;34745;52.276;10.528;2024-02-21T05:03:44;8.90;2.10
48936;DHT22;34745;52.276;10.528;2024-02-21T05:06:11;8.90;1.00
48936;DHT22;34745;52.276;10.528;2024-02-21T05:08:38;9.00;1.00
48936;DHT22;34745;52.276;10.528;2024-02-21T05:11:05;9.00;1.00
48936;DHT22;34745;52.276;10.528;2024-02-21T05:13:33;8.90;1.00
48936;DHT22;34745;52.276;10.528;2024-02-21T05:16:01;9.00;1.00
48936;DHT22;34745;52.276;10.528;2024-02-21T05:18:28;9.00;1.00
48936;DHT22;34745;52.276;10.528;2024-02-21T05:20:55;9.00;1.00
48936;DHT22;34745;52.276;10.528;2024-02-21T05:23:22;9.00;1.00
48936;DHT22;34745;52.276;10.528;2024-02-21T05:25:49;9.00;1.00
48936;DHT22;34745;52.276;10.528;2024-02-21T05:28:16;9.00;1.00
48936;DHT22;34745;52.276;10.528;2024-02-21T05:30:43;9.00;1.00
48936;DHT22;34745;52.276;10.528;2024-02-21T05:33:15;9.00;1.00
48936;DHT22;34745;52.276;10.528;2024-02-21T05:35:48;9.00;1.00
48936;DHT22;34745;52.276;10.528;2024-02-21T05:38:15;9.00;1.00
48936;DHT22;34745;52.276;10.528;2024-02-21T05:40:42;9.00;1.00
48936;DHT22;34745;52.276;10.528;2024-02-21T05:43:10;9.00;1.00
48936;DHT22;34745;52.276;10.528;2024-02-21T05:45:37;9.00;1.00
48936;DHT22;34745;52.276;10.528;2024-02-21T05:48:04;9.00;1.00
48936;DHT22;34745;52.276;10.528;2024-02-21T05:50:33;9.00;1.00
48936;DHT22;34745;52.276;10.528;2024-02-21T05:52:59;9.00;1.00
48936;DHT22;34745;52.276;10.528;2024-02-21T05:55:26;9.00;1.00
48936;DHT22;34745;52.276;10.528;2024-02-21T05:57:55;9.00;1.00
48936;DHT22;34745;52.276;10.528;2024-02-21T06:00:22;8.80;1.00
48936;DHT22;34745;52.276;10.528;2024-02-21T06:02:49;9.00;1.00
48936;DHT22;34745;52.276;10.528;2024-02-21T06:05:16;9.00;1.00
48936;DHT22;34745;52.276;10.528;2024-02-21T06:07:45;9.00;1.00
48936;DHT22;34745;52.276;10.528;2024-02-21T06:10:12;10.50;1.00
48936;DHT22;34745;52.276;10.528;2024-02-21T06:12:39;9.00;1.00
48936;DHT22;34745;52.276;10.528;2024-02-21T06:15:07;9.00;1.00
48936;DHT22;34745;52.276;10.528;2024-02-21T06:17:34;9.00;1.00
48936;DHT22;34745;52.276;10.528;2024-02-21T06:20:02;9.00;1.00
48936;DHT22;34745;52.276;10.528;2024-02-21T06:22:29;9.00;1.00
48936;DHT22;34745;52.276;10.528;2024-02-21T06:24:58;9.00;1.00
48936;DHT22;34745;52.276;10.528;2024-02-21T06:27:25;9.00;1.00
48936;DHT22;34745;52.276;10.528;2024-02-21T06:29:52;9.00;1.00
48936;DHT22;34745;52.276;10.528;2024-02-21T06:32:19;9.00;1.00
48936;DHT22;34745;52.276;10.528;2024-02-21T06:34:46;9.00;1.00
48936;DHT22;34745;52.276;10.528;2024-02-21T06:37:13;9.00;1.00
48936;DHT22;34745;52.276;10.528;2024-02-21T06:39:40;9.00;1.00
48936;DHT22;34745;52.276;10.528;2024-02-21T06:42:09;9.10;1.00
48936;DHT22;34745;52.276;10.528;2024-02-21T06:44:36;9.00;1.00
48936;DHT22;34745;52.276;10.528;2024-02-21T06:47:07;9.10;1.00
48936;DHT22;34745;52.276;10.528;2024-02-21T06:49:35;9.10;1.00
48936;DHT22;34745;52.276;10.528;2024-02-21T06:52:05;9.10;1.00
48936;DHT22;34745;52.276;10.528;2024-02-21T06:54:32;9.20;1.00
48936;DHT22;34745;52.276;10.528;2024-02-21T06:57:00;9.00;1.00
48936;DHT22;34745;52.276;10.528;2024-02-21T06:59:28;9.00;1.00
48936;DHT22;34745;52.276;10.528;2024-02-21T07:01:55;9.00;1.00
48936;DHT22;34745;52.276;10.528;2024-02-21T07:04:23;9.10;1.00
48936;DHT22;34745;52.276;10.528;2024-02-21T07:06:50;9.00;1.00
48936;DHT22;34745;52.276;10.528;2024-02-21T07:09:17;9.10;1.00
48936;DHT22;34745;52.276;10.528;2024-02-21T07:11:44;9.00;1.00
48936;DHT22;34745;52.276;10.528;2024-02-21T07:14:11;9.10;1.00
48936;DHT22;34745;52.276;10.528;2024-02-21T07:16:39;9.10;1.00
48936;DHT22;34745;52.276;10.528;2024-02-21T07:19:06;9.10;1.00
48936;DHT22;34745;52.276;10.528;2024-02-21T07:21:33;9.00;1.00
48936;DHT22;34745;52.276;10.528;2024-02-21T07:24:01;9.00;1.00
48936;DHT22;34745;52.276;10.528;2024-02-21T07:26:27;9.00;1.00
48936;DHT22;34745;52.276;10.528;2024-02-21T07:28:55;9.10;1.00
48936;DHT22;34745;52.276;10.528;2024-02-21T07:31:22;9.10;1.00
48936;DHT22;34745;52.276;10.528;2024-02-21T07:33:50;9.10;1.00
48936;DHT22;34745;52.276;10.528;2024-02-21T07:36:29;9.00;1.00
48936;DHT22;34745;52.276;10.528;2024-02-21T07:38:59;9.00;1.00
48936;DHT22;34745;52.276;10.528;2024-02-21T07:41:26;9.00;1.00
48936;DHT22;34745;52.276;10.528;2024-02-21T07:43:53;9.00;1.00
48936;DHT22;34745;52.276;10.528;2024-02-21T07:46:20;9.00;1.00
48936;DHT22;34745;52.276;10.528;2024-02-21T07:48:50;9.00;1.00
48936;DHT22;34745;52.276;10.528;2024-02-21T07:51:17;9.00;1.00
48936;DHT22;34745;52.276;10.528;2024-02-21T07:53:45;9.00;1.00
48936;DHT22;34745;52.276;10.528;2024-02-21T07:56:13;9.00;1.00
48936;DHT22;34745;52.276;10.528;2024-02-21T07:58:40;9.00;1.00
48936;DHT22;34745;52.276;10.528;2024-02-21T08:01:08;9.00;1.00
48936;DHT22;34745;52.276;10.528;2024-02-21T08:03:35;9.00;1.00
48936;DHT22;34745;52.276;10.528;2024-02-21T08:06:04;9.00;1.00
48936;DHT22;34745;52.276;10.528;2024-02-21T08:08:31;9.10;1.00
48936;DHT22;34745;52.276;10.528;2024-02-21T08:10:58;9.10;1.00
48936;DHT22;34745;52.276;10.528;2024-02-21T08:13:25;9.20;1.00
48936;DHT22;34745;52.276;10.528;2024-02-21T08:15:52;9.20;1.00
48936;DHT22;34745;52.276;10.528;2024-02-21T08:18:19;9.20;1.00
48936;DHT22;34745;52.276;10.528;2024-02-21T08:20:46;9.20;1.00
48936;DHT22;34745;52.276;10.528;2024-02-21T08:23:15;9.20;1.00
48936;DHT22;34745;52.276;10.528;2024-02-21T08:25:42;9.30;1.00
48936;DHT22;34745;52.276;10.528;2024-02-21T08:28:09;9.20;1.00
48936;DHT22;34745;52.276;10.528;2024-02-21T08:30:37;9.20;1.00
48936;DHT22;34745;52.276;10.528;2024-02-21T08:33:04;9.30;1.00
48936;DHT22;34745;52.276;10.528;2024-02-21T08:35:31;9.30;1.00
48936;DHT22;34745;52.276;10.528;2024-02-21T08:37:58;9.30;1.00
48936;DHT22;34745;52.276;10.528;2024-02-21T08:40:27;9.30;1.00
48936;DHT22;34745;52.276;10.528;2024-02-21T08:42:53;9.30;1.00
48936;DHT22;34745;52.276;10.528;2024-02-21T08:45:21;9.40;1.00
48936;DHT22;34745;52.276;10.528;2024-02-21T08:47:47;9.30;1.00
48936;DHT22;34745;52.276;10.528;2024-02-21T08:50:15;9.50;1.00
48936;DHT22;34745;52.276;10.528;2024-02-21T08:52:54;9.30;1.00
48936;DHT22;34745;52.276;10.528;2024-02-21T08:55:22;9.40;1.00
48936;DHT22;34745;52.276;10.528;2024-02-21T08:57:50;9.40;1.00
48936;DHT22;34745;52.276;10.528;2024-02-21T09:00:18;9.40;1.00
48936;DHT22;34745;52.276;10.528;2024-02-21T09:02:48;9.40;1.00
48936;DHT22;34745;52.276;10.528;2024-02-21T09:05:15;9.40;1.00
48936;DHT22;34745;52.276;10.528;2024-02-21T09:07:42;9.40;1.00
48936;DHT22;34745;52.276;10.528;2024-02-21T09:10:09;9.40;1.00
48936;DHT22;34745;52.276;10.528;2024-02-21T09:12:36;9.40;1.00
48936;DHT22;34745;52.276;10.528;2024-02-21T09:15:06;9.40;1.00
48936;DHT22;34745;52.276;10.528;2024-02-21T09:17:33;9.50;1.00
48936;DHT22;34745;52.276;10.528;2024-02-21T09:20:00;9.50;1.00
48936;DHT22;34745;52.276;10.528;2024-02-21T09:22:30;9.50;1.00
48936;DHT22;34745;52.276;10.528;2024-02-21T09:25:00;9.60;1.00
48936;DHT22;34745;52.276;10.528;2024-02-21T09:27:28;9.70;1.00
48936;DHT22;34745;52.276;10.528;2024-02-21T09:29:54;9.70;1.00
48936;DHT22;34745;52.276;10.528;2024-02-21T09:32:24;9.70;1.00
48936;DHT22;34745;52.276;10.528;2024-02-21T09:34:51;9.80;1.00
48936;DHT22;34745;52.276;10.528;2024-02-21T09:37:19;9.80;1.00
48936;DHT22;34745;52.276;10.528;2024-02-21T09:39:45;9.90;1.00
48936;DHT22;34745;52.276;10.528;2024-02-21T09:42:16;9.90;1.00
48936;DHT22;34745;52.276;10.528;2024-02-21T09:44:46;10.00;1.00
48936;DHT22;34745;52.276;10.528;2024-02-21T09:47:17;10.00;1.00
48936;DHT22;34745;52.276;10.528;2024-02-21T09:49:47;10.00;1.00
48936;DHT22;34745;52.276;10.528;2024-02-21T09:52:15;10.00;1.00
48936;DHT22;34745;52.276;10.528;2024-02-21T09:54:43;10.10;1.00
48936;DHT22;34745;52.276;10.528;2024-02-21T09:57:13;10.20;1.00
48936;DHT22;34745;52.276;10.528;2024-02-21T09:59:40;10.20;1.00
48936;DHT22;34745;52.276;10.528;2024-02-21T10:02:10;10.20;1.00
48936;DHT22;34745;52.276;10.528;2024-02-21T10:04:40;10.20;1.00
48936;DHT22;34745;52.276;10.528;2024-02-21T10:07:09;10.10;1.00
48936;DHT22;34745;52.276;10.528;2024-02-21T10:09:36;10.20;1.00
48936;DHT22;34745;52.276;10.528;2024-02-21T10:12:10;10.20;1.00
48936;DHT22;34745;52.276;10.528;2024-02-21T10:14:39;10.20;1.00
48936;DHT22;34745;52.276;10.528;2024-02-21T10:17:06;10.30;1.00
48936;DHT22;34745;52.276;10.528;2024-02-21T10:19:37;10.30;1.00
48936;DHT22;34745;52.276;10.528;2024-02-21T10:22:09;10.30;1.00
48936;DHT22;34745;52.276;10.528;2024-02-21T10:24:37;10.40;1.00
48936;DHT22;34745;52.276;10.528;2024-02-21T10:27:06;10.30;1.00
48936;DHT22;34745;52.276;10.528;2024-02-21T10:29:40;10.20;1.00
48936;DHT22;34745;52.276;10.528;2024-02-21T10:32:08;10.20;1.00
48936;DHT22;34745;52.276;10.528;2024-02-21T10:34:36;10.20;1.00
48936;DHT22;34745;52.276;10.528;2024-02-21T10:37:05;10.20;1.00
48936;DHT22;34745;52.276;10.528;2024-02-21T10:39:35;10.20;1.00
48936;DHT22;34745;52.276;10.528;2024-02-21T10:42:03;10.20;1.00
48936;DHT22;34745;52.276;10.528;2024-02-21T10:44:34;10.20;1.00
48936;DHT22;34745;52.276;10.528;2024-02-21T10:47:05;10.20;1.00
48936;DHT22;34745;52.276;10.528;2024-02-21T10:49:37;10.20;1.00
48936;DHT22;34745;52.276;10.528;2024-02-21T10:52:12;10.20;1.00
48936;DHT22;34745;52.276;10.528;2024-02-21T10:54:44;10.20;1.00
48936;DHT22;34745;52.276;10.528;2024-02-21T10:57:17;10.30;1.00
48936;DHT22;34745;52.276;10.528;2024-02-21T10:59:45;10.20;1.00
48936;DHT22;34745;52.276;10.528;2024-02-21T11:02:15;10.20;1.00
48936;DHT22;34745;52.276;10.528;2024-02-21T11:04:43;10.20;1.00
48936;DHT22;34745;52.276;10.528;2024-02-21T11:07:11;10.30;1.00
48936;DHT22;34745;52.276;10.528;2024-02-21T11:09:38;10.20;1.00
48936;DHT22;34745;52.276;10.528;2024-02-21T11:12:07;10.30;1.00
48936;DHT22;34745;52.276;10.528;2024-02-21T11:14:38;10.40;1.00
48936;DHT22;34745;52.276;10.528;2024-02-21T11:17:15;10.40;1.00
48936;DHT22;34745;52.276;10.528;2024-02-21T11:19:42;10.50;1.00
48936;DHT22;34745;52.276;10.528;2024-02-21T11:22:14;10.50;1.00
48936;DHT22;34745;52.276;10.528;2024-02-21T11:24:43;10.50;1.00
48936;DHT22;34745;52.276;10.528;2024-02-21T11:27:13;10.70;1.00
48936;DHT22;34745;52.276;10.528;2024-02-21T11:29:43;10.70;1.00
48936;DHT22;34745;52.276;10.528;2024-02-21T11:32:10;10.60;1.00
48936;DHT22;34745;52.276;10.528;2024-02-21T11:34:41;10.80;1.00
48936;DHT22;34745;52.276;10.528;2024-02-21T11:37:14;11.00;1.00
48936;DHT22;34745;52.276;10.528;2024-02-21T11:39:44;11.20;1.00
48936;DHT22;34745;52.276;10.528;2024-02-21T11:42:13;11.10;1.00
48936;DHT22;34745;52.276;10.528;2024-02-21T11:44:41;11.10;1.00
48936;DHT22;34745;52.276;10.528;2024-02-21T11:47:09;11.00;1.00
48936;DHT22;34745;52.276;10.528;2024-02-21T11:49:37;11.00;1.00
48936;DHT22;34745;52.276;10.528;2024-02-21T11:52:06;10.90;1.00
48936;DHT22;34745;52.276;10.528;2024-02-21T11:54:34;10.90;1.00
48936;DHT22;34745;52.276;10.528;2024-02-21T11:57:01;10.90;1.00
48936;DHT22;34745;52.276;10.528;2024-02-21T11:59:31;10.90;1.00
48936;DHT22;34745;52.276;10.528;2024-02-21T12:01:58;10.90;1.00
48936;DHT22;34745;52.276;10.528;2024-02-21T12:04:26;10.80;1.00
48936;DHT22;34745;52.276;10.528;2024-02-21T12:06:53;10.90;1.00
48936;DHT22;34745;52.276;10.528;2024-02-21T12:09:23;10.90;1.00
48936;DHT22;34745;52.276;10.528;2024-02-21T12:11:57;11.00;1.00
48936;DHT22;34745;52.276;10.528;2024-02-21T12:14:27;10.90;1.00
48936;DHT22;34745;52.276;10.528;2024-02-21T12:16:56;11.00;1.00
48936;DHT22;34745;52.276;10.528;2024-02-21T12:19:23;11.20;1.00
48936;DHT22;34745;52.276;10.528;2024-02-21T12:21:50;11.20;1.00
48936;DHT22;34745;52.276;10.528;2024-02-21T12:24:21;11.30;1.00
48936;DHT22;34745;52.276;10.528;2024-02-21T12:26:48;11.40;1.00
48936;DHT22;34745;52.276;10.528;2024-02-21T12:29:15;11.30;1.00
48936;DHT22;34745;52.276;10.528;2024-02-21T12:31:42;11.50;1.00
48936;DHT22;34745;52.276;10.528;2024-02-21T12:34:14;11.60;1.00
48936;DHT22;34745;52.276;10.528;2024-02-21T12:36:43;11.70;1.00
48936;DHT22;34745;52.276;10.528;2024-02-21T12:39:10;11.60;1.00
48936;DHT22;34745;52.276;10.528;2024-02-21T12:41:38;11.60;1.00
48936;DHT22;34745;52.276;10.528;2024-02-21T12:44:05;11.50;1.00
48936;DHT22;34745;52.276;10.528;2024-02-21T12:46:34;11.40;1.00
48936;DHT22;34745;52.276;10.528;2024-02-21T12:49:01;11.30;1.00
48936;DHT22;34745;52.276;10.528;2024-02-21T12:51:29;11.10;1.00
48936;DHT22;34745;52.276;10.528;2024-02-21T12:53:56;11.10;1.00
48936;DHT22;34745;52.276;10.528;2024-02-21T12:56:23;11.10;1.00
48936;DHT22;34745;52.276;10.528;2024-02-21T12:58:51;11.10;1.00
48936;DHT22;34745;52.276;10.528;2024-02-21T13:01:18;11.10;1.00
48936;DHT22;34745;52.276;10.528;2024-02-21T13:03:45;11.00;1.00
48936;DHT22;34745;52.276;10.528;2024-02-21T13:06:13;11.00;1.00
48936;DHT22;34745;52.276;10.528;2024-02-21T13:08:42;11.10;1.00
48936;DHT22;34745;52.276;10.528;2024-02-21T13:11:10;11.20;1.00
48936;DHT22;34745;52.276;10.528;2024-02-21T13:13:38;11.30;1.00
48936;DHT22;34745;52.276;10.528;2024-02-21T13:16:06;11.20;1.00
48936;DHT22;34745;52.276;10.528;2024-02-21T13:18:34;11.20;1.00
48936;DHT22;34745;52.276;10.528;2024-02-21T13:21:02;11.40;1.00
48936;DHT22;34745;52.276;10.528;2024-02-21T13:23:29;11.30;1.00
48936;DHT22;34745;52.276;10.528;2024-02-21T13:25:58;11.30;1.00
48936;DHT22;34745;52.276;10.528;2024-02-21T13:28:25;11.30;1.00
48936;DHT22;34745;52.276;10.528;2024-02-21T13:30:52;11.20;1.00
48936;DHT22;34745;52.276;10.528;2024-02-21T13:33:19;11.40;1.00
48936;DHT22;34745;52.276;10.528;2024-02-21T13:35:46;11.80;1.00
48936;DHT22;34745;52.276;10.528;2024-02-21T13:38:13;11.80;1.00
48936;DHT22;34745;52.276;10.528;2024-02-21T13:40:41;12.00;1.00
48936;DHT22;34745;52.276;10.528;2024-02-21T13:43:10;12.00;1.00
48936;DHT22;34745;52.276;10.528;2024-02-21T13:45:38;12.00;1.00
48936;DHT22;34745;52.276;10.528;2024-02-21T13:48:06;11.80;1.00
48936;DHT22;34745;52.276;10.528;2024-02-21T13:50:34;11.90;1.00
48936;DHT22;34745;52.276;10.528;2024-02-21T13:53:09;11.80;1.00
48936;DHT22;34745;52.276;10.528;2024-02-21T13:55:37;11.90;1.00
48936;DHT22;34745;52.276;10.528;2024-02-21T13:58:03;11.90;1.00
48936;DHT22;34745;52.276;10.528;2024-02-21T14:00:32;11.80;1.00
48936;DHT22;34745;52.276;10.528;2024-02-21T14:03:03;11.70;1.00
48936;DHT22;34745;52.276;10.528;2024-02-21T14:05:30;11.60;1.00
48936;DHT22;34745;52.276;10.528;2024-02-21T14:07:57;11.60;1.00
48936;DHT22;34745;52.276;10.528;2024-02-21T14:10:24;11.60;1.00
48936;DHT22;34745;52.276;10.528;2024-02-21T14:12:51;11.50;1.00
48936;DHT22;34745;52.276;10.528;2024-02-21T14:15:18;11.40;1.00
48936;DHT22;34745;52.276;10.528;2024-02-21T14:17:46;11.50;1.00
48936;DHT22;34745;52.276;10.528;2024-02-21T14:20:14;11.50;1.00
48936;DHT22;34745;52.276;10.528;2024-02-21T14:22:43;11.40;1.00
48936;DHT22;34745;52.276;10.528;2024-02-21T14:25:10;11.40;1.00
48936;DHT22;34745;52.276;10.528;2024-02-21T14:27:38;11.50;1.00
48936;DHT22;34745;52.276;10.528;2024-02-21T14:30:06;11.40;1.00
48936;DHT22;34745;52.276;10.528;2024-02-21T14:32:32;11.50;1.00
48936;DHT22;34745;52.276;10.528;2024-02-21T14:35:01;11.40;1.00
48936;DHT22;34745;52.276;10.528;2024-02-21T14:37:32;11.40;1.00
48936;DHT22;34745;52.276;10.528;2024-02-21T14:39:59;11.30;1.00
48936;DHT22;34745;52.276;10.528;2024-02-21T14:42:27;11.10;1.00
48936;DHT22;34745;52.276;10.528;2024-02-21T14:44:54;11.10;1.00
48936;DHT22;34745;52.276;10.528;2024-02-21T14:47:31;11.00;1.00
48936;DHT22;34745;52.276;10.528;2024-02-21T14:49:59;11.00;1.00
48936;DHT22;34745;52.276;10.528;2024-02-21T14:52:27;11.00;1.00
48936;DHT22;34745;52.276;10.528;2024-02-21T14:54:55;10.80;1.00
48936;DHT22;34745;52.276;10.528;2024-02-21T14:57:22;10.80;1.00
48936;DHT22;34745;52.276;10.528;2024-02-21T14:59:49;10.80;1.00
48936;DHT22;34745;52.276;10.528;2024-02-21T15:02:19;10.70;1.00
48936;DHT22;34745;52.276;10.528;2024-02-21T15:04:46;10.70;1.00
48936;DHT22;34745;52.276;10.528;2024-02-21T15:07:14;10.60;1.00
48936;DHT22;34745;52.276;10.528;2024-02-21T15:09:42;10.60;1.00
48936;DHT22;34745;52.276;10.528;2024-02-21T15:12:09;10.60;1.00
48936;DHT22;34745;52.276;10.528;2024-02-21T15:14:37;10.60;1.00
48936;DHT22;34745;52.276;10.528;2024-02-21T15:17:05;11.80;1.00
48936;DHT22;34745;52.276;10.528;2024-02-21T15:19:32;10.60;1.00
48936;DHT22;34745;52.276;10.528;2024-02-21T15:22:03;10.50;1.00
48936;DHT22;34745;52.276;10.528;2024-02-21T15:24:30;10.50;1.00
48936;DHT22;34745;52.276;10.528;2024-02-21T15:26:58;10.60;1.00
48936;DHT22;34745;52.276;10.528;2024-02-21T15:29:25;10.50;1.00
48936;DHT22;34745;52.276;10.528;2024-02-21T15:31:52;10.50;1.00
48936;DHT22;34745;52.276;10.528;2024-02-21T15:34:19;10.40;1.00
48936;DHT22;34745;52.276;10.528;2024-02-21T15:36:47;10.40;1.00
48936;DHT22;34745;52.276;10.528;2024-02-21T15:39:15;10.30;1.00